sensor_id;sensor_type;location;lat;lon;timestamp;pressure;altitude;pressure_sealevel;temperature;humidity
19447;BME280;9862;49.462;11.054;2024-02-28T00:00:24;98015.41;;;7.47;100.00
19447;BME280;9862;49.462;11.054;2024-02-28T00:02:50;98015.41;;;7.47;100.00
19447;BME280;9862;49.462;11.054;2024-02-28T00:05:18;98013.13;;;7.44;100.00
19447;BME280;9862;49.462;11.054;2024-02-28T00:07:45;98015.94;;;7.43;100.00
19447;BME280;9862;49.462;11.054;2024-02-28T00:10:12;98014.50;;;7.40;100.00
19447;BME280;9862;49.462;11.054;2024-02-28T00:12:39;98020.44;;;7.42;100.00
19447;BME280;9862;49.462;11.054;2024-02-28T00:15:07;98020.22;;;7.23;100.00
19447;BME280;9862;49.462;11.054;2024-02-28T00:17:38;98024.69;;;7.22;100.00
19447;BME280;9862;49.462;11.054;2024-02-28T00:20:06;98022.53;;;7.26;100.00
19447;BME280;9862;49.462;11.054;2024-02-28T00:22:35;98027.03;;;7.32;100.00
19447;BME280;9862;49.462;11.054;2024-02-28T00:25:02;98018.88;;;7.27;100.00
19447;BME280;9862;49.462;11.054;2024-02-28T00:27:28;98014.28;;;7.35;100.00
19447;BME280;9862;49.462;11.054;2024-02-28T00:29:55;98021.56;;;7.33;100.00
19447;BME280;9862;49.462;11.054;2024-02-28T00:32:22;98017.53;;;7.37;100.00
19447;BME280;9862;49.462;11.054;2024-02-28T00:34:48;98019.19;;;7.38;100.00
19447;BME280;9862;49.462;11.054;2024-02-28T00:37:15;98013.13;;;7.44;100.00
19447;BME280;9862;49.462;11.054;2024-02-28T00:39:44;98025.72;;;7.42;100.00
19447;BME280;9862;49.462;11.054;2024-02-28T00:42:11;98025.28;;;7.39;100.00
19447;BME280;9862;49.462;11.054;2024-02-28T00:44:38;98019.63;;;7.42;100.00
19447;BME280;9862;49.462;11.054;2024-02-28T00:47:07;98019.19;;;7.38;100.00
19447;BME280;9862;49.462;11.054;2024-02-28T00:49:34;98015.91;;;7.36;100.00
19447;BME280;9862;49.462;11.054;2024-02-28T00:52:01;98018.44;;;7.44;100.00
19447;BME280;9862;49.462;11.054;2024-02-28T00:54:27;98015.63;;;7.53;100.00
19447;BME280;9862;49.462;11.054;2024-02-28T00:56:56;98029.41;;;7.63;100.00
19447;BME280;9862;49.462;11.054;2024-02-28T00:59:22;98022.09;;;7.65;100.00
19447;BME280;9862;49.462;11.054;2024-02-28T01:01:49;98022.72;;;7.67;100.00
19447;BME280;9862;49.462;11.054;2024-02-28T01:04:15;98027.38;;;7.65;100.00
19447;BME280;9862;49.462;11.054;2024-02-28T01:06:42;98024.75;;;7.65;100.00
19447;BME280;9862;49.462;11.054;2024-02-28T01:09:09;98025.56;;;7.65;100.00
19447;BME280;9862;49.462;11.054;2024-02-28T01:11:35;98025.88;;;7.56;100.00
19447;BME280;9862;49.462;11.054;2024-02-28T01:14:04;98013.66;;;7.55;100.00
19447;BME280;9862;49.462;11.054;2024-02-28T01:16:30;98022.22;;;7.57;100.00
19447;BME280;9862;49.462;11.054;2024-02-28T01:18:57;98026.75;;;7.63;100.00
19447;BME280;9862;49.462;11.054;2024-02-28T01:21:24;98024.41;;;7.74;100.00
19447;BME280;9862;49.462;11.054;2024-02-28T01:23:51;98030.72;;;7.73;100.00
19447;BME280;9862;49.462;11.054;2024-02-28T01:26:18;98026.38;;;7.66;100.00
19447;BME280;9862;49.462;11.054;2024-02-28T01:28:45;98026.25;;;7.74;100.00
19447;BME280;9862;49.462;11.054;2024-02-28T01:31:13;98026.34;;;7.87;100.00
19447;BME280;9862;49.462;11.054;2024-02-28T01:33:40;98027.91;;;8.03;100.00
19447;BME280;9862;49.462;11.054;2024-02-28T01:36:07;98024.66;;;8.08;100.00
19447;BME280;9862;49.462;11.054;2024-02-28T01:38:34;98027.44;;;7.93;100.00
19447;BME280;9862;49.462;11.054;2024-02-28T01:41:00;98031.16;;;7.77;100.00
19447;BME280;9862;49.462;11.054;2024-02-28T01:43:27;98022.31;;;7.70;100.00
19447;BME280;9862;49.462;11.054;2024-02-28T01:45:53;98017.41;;;7.67;100.00
19447;BME280;9862;49.462;11.054;2024-02-28T01:48:22;98016.72;;;7.58;100.00
19447;BME280;9862;49.462;11.054;2024-02-28T01:50:48;98019.56;;;7.57;100.00
19447;BME280;9862;49.462;11.054;2024-02-28T01:53:15;98020.06;;;7.45;100.00
19447;BME280;9862;49.462;11.054;2024-02-28T01:55:42;98020.19;;;7.59;100.00
19447;BME280;9862;49.462;11.054;2024-02-28T01:58:09;98021.28;;;7.64;100.00
19447;BME280;9862;49.462;11.054;2024-02-28T02:00:36;98025.84;;;7.77;100.00
19447;BME280;9862;49.462;11.054;2024-02-28T02:03:04;98037.56;;;7.89;100.00
19447;BME280;9862;49.462;11.054;2024-02-28T02:05:32;98035.59;;;7.98;100.00
19447;BME280;9862;49.462;11.054;2024-02-28T02:07:59;98033.47;;;7.87;100.00
19447;BME280;9862;49.462;11.054;2024-02-28T02:10:26;98038.34;;;7.83;100.00
19447;BME280;9862;49.462;11.054;2024-02-28T02:12:52;98050.44;;;7.71;100.00
19447;BME280;9862;49.462;11.054;2024-02-28T02:15:19;98046.44;;;7.75;100.00
19447;BME280;9862;49.462;11.054;2024-02-28T02:17:46;98052.53;;;7.75;100.00
19447;BME280;9862;49.462;11.054;2024-02-28T02:20:14;98047.03;;;7.77;100.00
19447;BME280;9862;49.462;11.054;2024-02-28T02:22:42;98055.75;;;7.92;100.00
19447;BME280;9862;49.462;11.054;2024-02-28T02:25:09;98061.28;;;7.97;100.00
19447;BME280;9862;49.462;11.054;2024-02-28T02:27:36;98062.88;;;8.20;100.00
19447;BME280;9862;49.462;11.054;2024-02-28T02:30:03;98072.72;;;8.26;100.00
19447;BME280;9862;49.462;11.054;2024-02-28T02:32:30;98082.38;;;8.33;100.00
19447;BME280;9862;49.462;11.054;2024-02-28T02:34:56;98075.38;;;8.26;100.00
19447;BME280;9862;49.462;11.054;2024-02-28T02:37:23;98077.00;;;8.27;100.00
19447;BME280;9862;49.462;11.054;2024-02-28T02:39:51;98089.25;;;8.28;100.00
19447;BME280;9862;49.462;11.054;2024-02-28T02:42:18;98090.22;;;8.42;100.00
19447;BME280;9862;49.462;11.054;2024-02-28T02:44:45;98097.34;;;8.41;100.00
19447;BME280;9862;49.462;11.054;2024-02-28T02:47:12;98100.78;;;8.35;100.00
19447;BME280;9862;49.462;11.054;2024-02-28T02:49:38;98108.31;;;8.38;100.00
19447;BME280;9862;49.462;11.054;2024-02-28T02:52:05;98112.13;;;8.50;100.00
19447;BME280;9862;49.462;11.054;2024-02-28T02:54:32;98111.13;;;8.58;100.00
19447;BME280;9862;49.462;11.054;2024-02-28T02:57:00;98117.91;;;8.60;100.00
19447;BME280;9862;49.462;11.054;2024-02-28T02:59:27;98115.13;;;8.47;100.00
19447;BME280;9862;49.462;11.054;2024-02-28T03:01:53;98118.81;;;8.25;100.00
19447;BME280;9862;49.462;11.054;2024-02-28T03:04:20;98122.59;;;8.16;100.00
19447;BME280;9862;49.462;11.054;2024-02-28T03:06:47;98120.09;;;8.08;100.00
19447;BME280;9862;49.462;11.054;2024-02-28T03:09:16;98128.66;;;8.10;100.00
19447;BME280;9862;49.462;11.054;2024-02-28T03:11:43;98128.84;;;8.08;100.00
19447;BME280;9862;49.462;11.054;2024-02-28T03:14:14;98135.16;;;8.07;100.00
19447;BME280;9862;49.462;11.054;2024-02-28T03:16:42;98130.97;;;7.91;100.00
19447;BME280;9862;49.462;11.054;2024-02-28T03:19:11;98148.81;;;7.83;100.00
19447;BME280;9862;49.462;11.054;2024-02-28T03:21:39;98145.28;;;7.61;100.00
19447;BME280;9862;49.462;11.054;2024-02-28T03:24:07;98141.09;;;7.52;100.00
19447;BME280;9862;49.462;11.054;2024-02-28T03:26:39;98147.06;;;7.54;100.00
19447;BME280;9862;49.462;11.054;2024-02-28T03:29:08;98148.19;;;7.44;100.00
19447;BME280;9862;49.462;11.054;2024-02-28T03:31:37;98152.47;;;7.45;100.00
19447;BME280;9862;49.462;11.054;2024-02-28T03:34:05;98145.34;;;7.46;100.00
19447;BME280;9862;49.462;11.054;2024-02-28T03:36:32;98162.53;;;7.35;100.00
19447;BME280;9862;49.462;11.054;2024-02-28T03:38:59;98150.00;;;7.44;100.00
19447;BME280;9862;49.462;11.054;2024-02-28T03:41:25;98158.00;;;7.51;100.00
19447;BME280;9862;49.462;11.054;2024-02-28T03:43:52;98160.75;;;7.57;100.00
19447;BME280;9862;49.462;11.054;2024-02-28T03:46:18;98167.13;;;7.63;100.00
19447;BME280;9862;49.462;11.054;2024-02-28T03:48:48;98168.13;;;7.62;100.00
19447;BME280;9862;49.462;11.054;2024-02-28T03:51:14;98173.78;;;7.59;100.00
19447;BME280;9862;49.462;11.054;2024-02-28T03:53:41;98174.00;;;7.42;100.00
19447;BME280;9862;49.462;11.054;2024-02-28T03:56:08;98173.75;;;7.37;100.00
19447;BME280;9862;49.462;11.054;2024-02-28T03:58:35;98184.59;;;7.42;100.00
19447;BME280;9862;49.462;11.054;2024-02-28T04:01:01;98194.53;;;7.40;100.00
19447;BME280;9862;49.462;11.054;2024-02-28T04:03:28;98196.75;;;7.37;100.00
19447;BME280;9862;49.462;11.054;2024-02-28T04:05:56;98198.03;;;7.26;100.00
19447;BME280;9862;49.462;11.054;2024-02-28T04:08:23;98200.22;;;7.23;100.00
19447;BME280;9862;49.462;11.054;2024-02-28T04:10:50;98195.72;;;7.23;100.00
19447;BME280;9862;49.462;11.054;2024-02-28T04:13:17;98198.38;;;7.23;100.00
19447;BME280;9862;49.462;11.054;2024-02-28T04:15:43;98203.53;;;7.25;100.00
19447;BME280;9862;49.462;11.054;2024-02-28T04:18:11;98200.31;;;7.29;100.00
19447;BME280;9862;49.462;11.054;2024-02-28T04:20:37;98196.94;;;7.35;100.00
19447;BME280;9862;49.462;11.054;2024-02-28T04:23:06;98209.91;;;7.45;100.00
19447;BME280;9862;49.462;11.054;2024-02-28T04:25:32;98204.31;;;7.55;100.00
19447;BME280;9862;49.462;11.054;2024-02-28T04:27:59;98201.00;;;7.53;100.00
19447;BME280;9862;49.462;11.054;2024-02-28T04:30:26;98203.41;;;7.47;100.00
19447;BME280;9862;49.462;11.054;2024-02-28T04:32:53;98217.91;;;6.93;100.00
19447;BME280;9862;49.462;11.054;2024-02-28T04:35:20;98207.69;;;6.89;100.00
19447;BME280;9862;49.462;11.054;2024-02-28T04:37:47;98206.03;;;6.88;100.00
19447;BME280;9862;49.462;11.054;2024-02-28T04:40:15;98202.75;;;6.86;100.00
19447;BME280;9862;49.462;11.054;2024-02-28T04:42:42;98205.31;;;6.80;100.00
19447;BME280;9862;49.462;11.054;2024-02-28T04:45:09;98212.38;;;6.65;100.00
19447;BME280;9862;49.462;11.054;2024-02-28T04:47:36;98205.94;;;6.67;100.00
19447;BME280;9862;49.462;11.054;2024-02-28T04:50:04;98204.06;;;6.53;100.00
19447;BME280;9862;49.462;11.054;2024-02-28T04:52:31;98206.31;;;6.56;100.00
19447;BME280;9862;49.462;11.054;2024-02-28T04:54:58;98212.28;;;6.58;100.00
19447;BME280;9862;49.462;11.054;2024-02-28T04:57:26;98207.91;;;6.65;100.00
19447;BME280;9862;49.462;11.054;2024-02-28T04:59:53;98204.56;;;6.71;100.00
19447;BME280;9862;49.462;11.054;2024-02-28T05:02:19;98209.78;;;6.79;100.00
19447;BME280;9862;49.462;11.054;2024-02-28T05:04:47;98213.16;;;6.88;100.00
19447;BME280;9862;49.462;11.054;2024-02-28T05:07:14;98213.69;;;6.83;100.00
19447;BME280;9862;49.462;11.054;2024-02-28T05:09:40;98219.16;;;6.82;100.00
19447;BME280;9862;49.462;11.054;2024-02-28T05:12:07;98220.81;;;6.83;100.00
19447;BME280;9862;49.462;11.054;2024-02-28T05:14:35;98217.78;;;6.71;100.00
19447;BME280;9862;49.462;11.054;2024-02-28T05:17:02;98216.88;;;6.79;100.00
19447;BME280;9862;49.462;11.054;2024-02-28T05:19:29;98212.69;;;6.84;100.00
19447;BME280;9862;49.462;11.054;2024-02-28T05:21:56;98221.63;;;6.83;100.00
19447;BME280;9862;49.462;11.054;2024-02-28T05:24:23;98218.72;;;6.78;100.00
19447;BME280;9862;49.462;11.054;2024-02-28T05:26:49;98216.81;;;6.87;100.00
19447;BME280;9862;49.462;11.054;2024-02-28T05:29:16;98221.63;;;6.83;100.00
19447;BME280;9862;49.462;11.054;2024-02-28T05:31:44;98223.25;;;6.84;100.00
19447;BME280;9862;49.462;11.054;2024-02-28T05:34:11;98214.44;;;6.77;100.00
19447;BME280;9862;49.462;11.054;2024-02-28T05:36:38;98220.47;;;6.86;100.00
19447;BME280;9862;49.462;11.054;2024-02-28T05:39:07;98218.53;;;6.95;100.00
19447;BME280;9862;49.462;11.054;2024-02-28T05:41:33;98225.50;;;6.96;100.00
19447;BME280;9862;49.462;11.054;2024-02-28T05:44:00;98230.78;;;6.96;100.00
19447;BME280;9862;49.462;11.054;2024-02-28T05:46:27;98233.44;;;6.96;100.00
19447;BME280;9862;49.462;11.054;2024-02-28T05:48:55;98223.47;;;6.98;100.00
19447;BME280;9862;49.462;11.054;2024-02-28T05:51:21;98228.66;;;6.91;100.00
19447;BME280;9862;49.462;11.054;2024-02-28T05:53:48;98230.78;;;6.96;100.00
19447;BME280;9862;49.462;11.054;2024-02-28T05:56:16;98230.50;;;6.91;100.00
19447;BME280;9862;49.462;11.054;2024-02-28T05:58:46;98227.84;;;6.91;100.00
19447;BME280;9862;49.462;11.054;2024-02-28T06:01:15;98223.94;;;6.86;100.00
19447;BME280;9862;49.462;11.054;2024-02-28T06:03:41;98227.28;;;6.80;100.00
19447;BME280;9862;49.462;11.054;2024-02-28T06:06:09;98232.94;;;6.77;100.00
19447;BME280;9862;49.462;11.054;2024-02-28T06:08:38;98237.16;;;6.86;100.00
19447;BME280;9862;49.462;11.054;2024-02-28T06:11:05;98239.34;;;6.98;100.00
19447;BME280;9862;49.462;11.054;2024-02-28T06:13:32;98251.69;;;7.05;100.00
19447;BME280;9862;49.462;11.054;2024-02-28T06:15:58;98253.59;;;7.11;100.00
19447;BME280;9862;49.462;11.054;2024-02-28T06:18:26;98257.06;;;7.12;100.00
19447;BME280;9862;49.462;11.054;2024-02-28T06:20:53;98262.84;;;7.15;100.00
19447;BME280;9862;49.462;11.054;2024-02-28T06:23:22;98265.00;;;7.12;100.00
19447;BME280;9862;49.462;11.054;2024-02-28T06:25:49;98265.06;;;7.04;100.00
19447;BME280;9862;49.462;11.054;2024-02-28T06:28:16;98267.16;;;6.94;100.00
19447;BME280;9862;49.462;11.054;2024-02-28T06:30:43;98274.75;;;6.97;100.00
19447;BME280;9862;49.462;11.054;2024-02-28T06:33:11;98278.19;;;6.82;100.00
19447;BME280;9862;49.462;11.054;2024-02-28T06:35:38;98282.47;;;6.83;100.00
19447;BME280;9862;49.462;11.054;2024-02-28T06:38:04;98287.69;;;6.92;100.00
19447;BME280;9862;49.462;11.054;2024-02-28T06:40:32;98296.19;;;7.02;100.00
19447;BME280;9862;49.462;11.054;2024-02-28T06:42:59;98302.84;;;6.98;100.00
19447;BME280;9862;49.462;11.054;2024-02-28T06:45:26;98307.22;;;6.91;100.00
19447;BME280;9862;49.462;11.054;2024-02-28T06:47:53;98307.63;;;6.79;100.00
19447;BME280;9862;49.462;11.054;2024-02-28T06:50:19;98306.81;;;6.79;100.00
19447;BME280;9862;49.462;11.054;2024-02-28T06:52:46;98299.75;;;6.71;100.00
19447;BME280;9862;49.462;11.054;2024-02-28T06:55:13;98310.66;;;6.76;100.00
19447;BME280;9862;49.462;11.054;2024-02-28T06:57:42;98306.63;;;6.80;100.00
19447;BME280;9862;49.462;11.054;2024-02-28T07:00:10;98317.81;;;6.68;100.00
19447;BME280;9862;49.462;11.054;2024-02-28T07:02:38;98312.97;;;6.71;100.00
19447;BME280;9862;49.462;11.054;2024-02-28T07:05:05;98320.16;;;6.85;100.00
19447;BME280;9862;49.462;11.054;2024-02-28T07:07:32;98326.72;;;6.89;100.00
19447;BME280;9862;49.462;11.054;2024-02-28T07:09:59;98332.38;;;6.86;100.00
19447;BME280;9862;49.462;11.054;2024-02-28T07:12:26;98333.97;;;6.96;100.00
19447;BME280;9862;49.462;11.054;2024-02-28T07:14:54;98339.66;;;7.07;100.00
19447;BME280;9862;49.462;11.054;2024-02-28T07:17:21;98342.94;;;7.09;100.00
19447;BME280;9862;49.462;11.054;2024-02-28T07:19:48;98340.84;;;7.20;100.00
19447;BME280;9862;49.462;11.054;2024-02-28T07:22:15;98349.81;;;7.33;100.00
19447;BME280;9862;49.462;11.054;2024-02-28T07:24:41;98351.84;;;7.31;100.00
19447;BME280;9862;49.462;11.054;2024-02-28T07:27:08;98361.34;;;7.40;100.00
19447;BME280;9862;49.462;11.054;2024-02-28T07:29:36;98357.25;;;7.38;100.00
19447;BME280;9862;49.462;11.054;2024-02-28T07:32:04;98358.34;;;7.43;100.00
19447;BME280;9862;49.462;11.054;2024-02-28T07:34:31;98361.06;;;7.35;100.00
19447;BME280;9862;49.462;11.054;2024-02-28T07:36:59;98355.72;;;7.43;100.00
19447;BME280;9862;49.462;11.054;2024-02-28T07:39:26;98358.25;;;7.52;100.00
19447;BME280;9862;49.462;11.054;2024-02-28T07:41:52;98356.34;;;7.60;100.00
19447;BME280;9862;49.462;11.054;2024-02-28T07:44:19;98368.06;;;7.66;100.00
19447;BME280;9862;49.462;11.054;2024-02-28T07:46:46;98369.78;;;7.59;100.00
19447;BME280;9862;49.462;11.054;2024-02-28T07:49:14;98371.69;;;7.50;100.00
19447;BME280;9862;49.462;11.054;2024-02-28T07:51:41;98373.44;;;7.58;100.00
19447;BME280;9862;49.462;11.054;2024-02-28T07:54:08;98373.63;;;7.86;100.00
19447;BME280;9862;49.462;11.054;2024-02-28T07:56:35;98381.28;;;8.10;100.00
19447;BME280;9862;49.462;11.054;2024-02-28T07:59:01;98380.59;;;8.01;100.00
19447;BME280;9862;49.462;11.054;2024-02-28T08:01:28;98383.03;;;7.88;100.00
19447;BME280;9862;49.462;11.054;2024-02-28T08:03:56;98377.66;;;7.82;100.00
19447;BME280;9862;49.462;11.054;2024-02-28T08:06:24;98394.28;;;7.90;100.00
19447;BME280;9862;49.462;11.054;2024-02-28T08:08:50;98380.47;;;8.10;100.00
19447;BME280;9862;49.462;11.054;2024-02-28T08:11:17;98386.69;;;8.17;100.00
19447;BME280;9862;49.462;11.054;2024-02-28T08:13:44;98391.16;;;8.16;100.00
19447;BME280;9862;49.462;11.054;2024-02-28T08:16:11;98394.91;;;8.22;100.00
19447;BME280;9862;49.462;11.054;2024-02-28T08:18:37;98400.59;;;8.04;100.00
19447;BME280;9862;49.462;11.054;2024-02-28T08:21:04;98401.97;;;7.85;100.00
19447;BME280;9862;49.462;11.054;2024-02-28T08:23:32;98395.00;;;7.55;100.00
19447;BME280;9862;49.462;11.054;2024-02-28T08:25:59;98404.66;;;7.47;100.00
19447;BME280;9862;49.462;11.054;2024-02-28T08:28:25;98420.22;;;7.28;100.00
19447;BME280;9862;49.462;11.054;2024-02-28T08:30:52;98419.44;;;7.19;100.00
19447;BME280;9862;49.462;11.054;2024-02-28T08:33:19;98410.06;;;7.31;100.00
19447;BME280;9862;49.462;11.054;2024-02-28T08:35:45;98411.72;;;7.32;100.00
19447;BME280;9862;49.462;11.054;2024-02-28T08:38:12;98422.44;;;7.16;100.00
19447;BME280;9862;49.462;11.054;2024-02-28T08:40:40;98418.81;;;7.17;100.00
19447;BME280;9862;49.462;11.054;2024-02-28T08:43:07;98421.03;;;7.28;100.00
19447;BME280;9862;49.462;11.054;2024-02-28T08:45:34;98416.50;;;7.52;100.00
19447;BME280;9862;49.462;11.054;2024-02-28T08:48:01;98439.56;;;7.66;100.00
19447;BME280;9862;49.462;11.054;2024-02-28T08:50:28;98425.88;;;7.77;100.00
19447;BME280;9862;49.462;11.054;2024-02-28T08:52:55;98435.22;;;7.73;100.00
19447;BME280;9862;49.462;11.054;2024-02-28T08:55:22;98442.84;;;7.68;100.00
19447;BME280;9862;49.462;11.054;2024-02-28T08:57:50;98449.34;;;7.42;100.00
19447;BME280;9862;49.462;11.054;2024-02-28T09:00:17;98454.00;;;7.40;100.00
19447;BME280;9862;49.462;11.054;2024-02-28T09:02:43;98450.44;;;7.10;100.00
19447;BME280;9862;49.462;11.054;2024-02-28T09:05:10;98441.78;;;6.94;100.00
19447;BME280;9862;49.462;11.054;2024-02-28T09:07:37;98446.75;;;6.97;100.00
19447;BME280;9862;49.462;11.054;2024-02-28T09:10:04;98450.16;;;7.05;100.00
19447;BME280;9862;49.462;11.054;2024-02-28T09:12:31;98457.50;;;7.18;100.00
19447;BME280;9862;49.462;11.054;2024-02-28T09:14:59;98447.19;;;7.23;100.00
19447;BME280;9862;49.462;11.054;2024-02-28T09:17:26;98445.75;;;7.43;100.00
19447;BME280;9862;49.462;11.054;2024-02-28T09:19:52;98451.38;;;7.40;100.00
19447;BME280;9862;49.462;11.054;2024-02-28T09:22:19;98441.13;;;7.37;100.00
19447;BME280;9862;49.462;11.054;2024-02-28T09:24:46;98447.25;;;7.38;100.00
19447;BME280;9862;49.462;11.054;2024-02-28T09:27:13;98451.84;;;7.21;100.00
19447;BME280;9862;49.462;11.054;2024-02-28T09:29:40;98448.34;;;7.06;100.00
19447;BME280;9862;49.462;11.054;2024-02-28T09:32:08;98455.72;;;7.10;100.00
19447;BME280;9862;49.462;11.054;2024-02-28T09:34:35;98452.44;;;7.08;100.00
19447;BME280;9862;49.462;11.054;2024-02-28T09:37:02;98447.03;;;7.25;100.00
19447;BME280;9862;49.462;11.054;2024-02-28T09:39:29;98452.16;;;7.26;100.00
19447;BME280;9862;49.462;11.054;2024-02-28T09:41:56;98450.16;;;7.28;100.00
19447;BME280;9862;49.462;11.054;2024-02-28T09:44:23;98448.53;;;7.42;100.00
19447;BME280;9862;49.462;11.054;2024-02-28T09:46:51;98450.22;;;7.58;100.00
19447;BME280;9862;49.462;11.054;2024-02-28T09:49:19;98453.44;;;7.68;100.00
19447;BME280;9862;49.462;11.054;2024-02-28T09:51:49;98451.75;;;7.75;100.00
19447;BME280;9862;49.462;11.054;2024-02-28T09:54:16;98448.44;;;7.73;100.00
19447;BME280;9862;49.462;11.054;2024-02-28T09:56:43;98456.81;;;7.62;100.00
19447;BME280;9862;49.462;11.054;2024-02-28T09:59:10;98457.81;;;7.61;100.00
19447;BME280;9862;49.462;11.054;2024-02-28T10:01:43;98455.16;;;7.61;100.00
19447;BME280;9862;49.462;11.054;2024-02-28T10:04:10;98458.81;;;7.60;100.00
19447;BME280;9862;49.462;11.054;2024-02-28T10:06:40;98465.94;;;7.59;100.00
19447;BME280;9862;49.462;11.054;2024-02-28T10:09:07;98460.06;;;7.49;100.00
19447;BME280;9862;49.462;11.054;2024-02-28T10:11:36;98462.50;;;7.36;100.00
19447;BME280;9862;49.462;11.054;2024-02-28T10:14:02;98471.97;;;7.30;100.00
19447;BME280;9862;49.462;11.054;2024-02-28T10:16:29;98463.38;;;7.28;100.00
19447;BME280;9862;49.462;11.054;2024-02-28T10:18:56;98463.16;;;7.38;100.00
19447;BME280;9862;49.462;11.054;2024-02-28T10:21:23;98466.06;;;7.43;100.00
19447;BME280;9862;49.462;11.054;2024-02-28T10:23:52;98468.78;;;7.58;100.00
19447;BME280;9862;49.462;11.054;2024-02-28T10:26:19;98475.00;;;7.65;100.00
19447;BME280;9862;49.462;11.054;2024-02-28T10:28:46;98469.91;;;7.78;100.00
19447;BME280;9862;49.462;11.054;2024-02-28T10:31:14;98482.06;;;7.72;100.00
19447;BME280;9862;49.462;11.054;2024-02-28T10:33:41;98471.75;;;7.78;100.00
19447;BME280;9862;49.462;11.054;2024-02-28T10:36:09;98474.13;;;7.87;100.00
19447;BME280;9862;49.462;11.054;2024-02-28T10:38:37;98479.72;;;7.92;100.00
19447;BME280;9862;49.462;11.054;2024-02-28T10:41:05;98480.63;;;7.99;100.00
19447;BME280;9862;49.462;11.054;2024-02-28T10:43:32;98475.19;;;8.16;100.00
19447;BME280;9862;49.462;11.054;2024-02-28T10:46:00;98483.03;;;8.24;100.00
19447;BME280;9862;49.462;11.054;2024-02-28T10:48:27;98490.56;;;8.35;100.00
19447;BME280;9862;49.462;11.054;2024-02-28T10:50:53;98487.88;;;8.06;100.00
19447;BME280;9862;49.462;11.054;2024-02-28T10:53:22;98493.16;;;8.06;100.00
19447;BME280;9862;49.462;11.054;2024-02-28T10:55:51;98494.38;;;8.03;100.00
19447;BME280;9862;49.462;11.054;2024-02-28T10:58:22;98488.84;;;7.90;100.00
19447;BME280;9862;49.462;11.054;2024-02-28T11:00:51;98492.78;;;7.94;100.00
19447;BME280;9862;49.462;11.054;2024-02-28T11:03:18;98496.97;;;7.88;100.00
19447;BME280;9862;49.462;11.054;2024-02-28T11:05:46;98494.97;;;7.90;100.00
19447;BME280;9862;49.462;11.054;2024-02-28T11:08:21;98499.00;;;7.86;100.00
19447;BME280;9862;49.462;11.054;2024-02-28T11:10:55;98507.56;;;7.88;100.00
19447;BME280;9862;49.462;11.054;2024-02-28T11:13:24;98504.16;;;7.80;100.00
19447;BME280;9862;49.462;11.054;2024-02-28T11:15:51;98505.59;;;7.67;100.00
19447;BME280;9862;49.462;11.054;2024-02-28T11:18:18;98504.34;;;7.63;100.00
19447;BME280;9862;49.462;11.054;2024-02-28T11:20:45;98503.56;;;7.55;100.00
19447;BME280;9862;49.462;11.054;2024-02-28T11:23:14;98498.22;;;7.63;100.00
19447;BME280;9862;49.462;11.054;2024-02-28T11:25:41;98511.38;;;7.71;100.00
19447;BME280;9862;49.462;11.054;2024-02-28T11:28:08;98505.06;;;7.72;100.00
19447;BME280;9862;49.462;11.054;2024-02-28T11:30:36;98503.34;;;7.79;100.00
19447;BME280;9862;49.462;11.054;2024-02-28T11:33:03;98504.34;;;7.78;100.00
19447;BME280;9862;49.462;11.054;2024-02-28T11:35:30;98496.41;;;7.78;100.00
19447;BME280;9862;49.462;11.054;2024-02-28T11:37:57;98501.09;;;7.91;100.00
19447;BME280;9862;49.462;11.054;2024-02-28T11:40:24;98504.41;;;7.93;100.00
19447;BME280;9862;49.462;11.054;2024-02-28T11:42:51;98499.19;;;7.99;100.00
19447;BME280;9862;49.462;11.054;2024-02-28T11:45:18;98501.41;;;8.11;100.00
19447;BME280;9862;49.462;11.054;2024-02-28T11:47:49;98506.34;;;8.14;100.00
19447;BME280;9862;49.462;11.054;2024-02-28T11:50:16;98504.06;;;8.25;100.00
19447;BME280;9862;49.462;11.054;2024-02-28T11:52:44;98511.28;;;8.02;100.00
19447;BME280;9862;49.462;11.054;2024-02-28T11:55:11;98514.13;;;8.15;100.00
19447;BME280;9862;49.462;11.054;2024-02-28T11:57:37;98510.28;;;8.18;100.00
19447;BME280;9862;49.462;11.054;2024-02-28T12:00:05;98514.13;;;8.15;100.00
19447;BME280;9862;49.462;11.054;2024-02-28T12:02:32;98514.69;;;8.25;100.00
19447;BME280;9862;49.462;11.054;2024-02-28T12:05:04;98521.38;;;8.36;100.00
19447;BME280;9862;49.462;11.054;2024-02-28T12:07:31;98518.19;;;8.41;100.00
19447;BME280;9862;49.462;11.054;2024-02-28T12:09:59;98510.81;;;8.28;100.00
19447;BME280;9862;49.462;11.054;2024-02-28T12:12:27;98507.13;;;8.37;100.00
19447;BME280;9862;49.462;11.054;2024-02-28T12:14:58;98510.00;;;8.27;100.00
19447;BME280;9862;49.462;11.054;2024-02-28T12:17:25;98508.47;;;8.33;100.00
19447;BME280;9862;49.462;11.054;2024-02-28T12:19:51;98508.13;;;8.36;100.00
19447;BME280;9862;49.462;11.054;2024-02-28T12:22:20;98503.75;;;8.43;100.00
19447;BME280;9862;49.462;11.054;2024-02-28T12:24:46;98512.88;;;8.55;100.00
19447;BME280;9862;49.462;11.054;2024-02-28T12:27:13;98511.16;;;8.63;100.00
19447;BME280;9862;49.462;11.054;2024-02-28T12:29:40;98501.34;;;8.63;100.00
19447;BME280;9862;49.462;11.054;2024-02-28T12:32:07;98501.25;;;8.56;100.00
19447;BME280;9862;49.462;11.054;2024-02-28T12:34:34;98498.88;;;8.62;100.00
19447;BME280;9862;49.462;11.054;2024-02-28T12:37:01;98492.47;;;8.71;100.00
19447;BME280;9862;49.462;11.054;2024-02-28T12:39:30;98502.13;;;8.93;100.00
19447;BME280;9862;49.462;11.054;2024-02-28T12:41:59;98502.13;;;8.93;100.00
19447;BME280;9862;49.462;11.054;2024-02-28T12:44:26;98499.28;;;8.95;100.00
19447;BME280;9862;49.462;11.054;2024-02-28T12:46:53;98503.78;;;8.94;100.00
19447;BME280;9862;49.462;11.054;2024-02-28T12:49:19;98504.69;;;9.01;100.00
19447;BME280;9862;49.462;11.054;2024-02-28T12:51:46;98499.91;;;9.11;100.00
19447;BME280;9862;49.462;11.054;2024-02-28T12:54:14;98496.53;;;9.24;100.00
19447;BME280;9862;49.462;11.054;2024-02-28T12:56:42;98495.69;;;9.38;100.00
19447;BME280;9862;49.462;11.054;2024-02-28T12:59:09;98486.75;;;9.25;100.00